sensor_id;sensor_type;location;lat;lon;timestamp;P1;durP1;ratioP1;P2;durP2;ratioP2
28653;SDS011;24320;56.980;24.336;2023-06-19T00:01:13;23.85;;;15.77;;
28653;SDS011;24320;56.980;24.336;2023-06-19T00:03:40;21.65;;;14.52;;
28653;SDS011;24320;56.980;24.336;2023-06-19T00:06:07;23.45;;;15.98;;
28653;SDS011;24320;56.980;24.336;2023-06-19T00:08:34;25.02;;;16.38;;
28653;SDS011;24320;56.980;24.336;2023-06-19T00:11:02;26.42;;;16.77;;
28653;SDS011;24320;56.980;24.336;2023-06-19T00:13:29;23.83;;;14.95;;
28653;SDS011;24320;56.980;24.336;2023-06-19T00:15:56;22.92;;;15.60;;
28653;SDS011;24320;56.980;24.336;2023-06-19T00:18:27;24.33;;;16.07;;
28653;SDS011;24320;56.980;24.336;2023-06-19T00:20:54;22.67;;;15.23;;
28653;SDS011;24320;56.980;24.336;2023-06-19T00:23:23;25.33;;;15.38;;
28653;SDS011;24320;56.980;24.336;2023-06-19T00:25:50;20.90;;;14.30;;
28653;SDS011;24320;56.980;24.336;2023-06-19T00:28:17;25.42;;;15.82;;
28653;SDS011;24320;56.980;24.336;2023-06-19T00:30:46;22.80;;;15.27;;
28653;SDS011;24320;56.980;24.336;2023-06-19T00:33:13;22.40;;;15.18;;
28653;SDS011;24320;56.980;24.336;2023-06-19T00:35:40;23.15;;;14.13;;
28653;SDS011;24320;56.980;24.336;2023-06-19T00:38:08;20.75;;;15.15;;
28653;SDS011;24320;56.980;24.336;2023-06-19T00:40:35;21.05;;;14.02;;
28653;SDS011;24320;56.980;24.336;2023-06-19T00:43:02;24.35;;;14.70;;
28653;SDS011;24320;56.980;24.336;2023-06-19T00:45:29;18.05;;;14.05;;
28653;SDS011;24320;56.980;24.336;2023-06-19T00:47:58;20.98;;;14.15;;
28653;SDS011;24320;56.980;24.336;2023-06-19T00:50:27;36.00;;;18.30;;
28653;SDS011;24320;56.980;24.336;2023-06-19T00:52:56;27.73;;;15.57;;
28653;SDS011;24320;56.980;24.336;2023-06-19T00:55:26;23.48;;;14.45;;
28653;SDS011;24320;56.980;24.336;2023-06-19T00:57:56;21.75;;;14.18;;
28653;SDS011;24320;56.980;24.336;2023-06-19T01:00:24;24.05;;;14.90;;
28653;SDS011;24320;56.980;24.336;2023-06-19T01:02:51;24.77;;;14.93;;
28653;SDS011;24320;56.980;24.336;2023-06-19T01:05:18;22.45;;;15.45;;
28653;SDS011;24320;56.980;24.336;2023-06-19T01:10:26;20.13;;;13.70;;
28653;SDS011;24320;56.980;24.336;2023-06-19T01:13:02;19.05;;;13.63;;
28653;SDS011;24320;56.980;24.336;2023-06-19T01:15:36;25.23;;;14.38;;
28653;SDS011;24320;56.980;24.336;2023-06-19T01:18:07;19.90;;;14.20;;
28653;SDS011;24320;56.980;24.336;2023-06-19T01:20:34;22.40;;;13.77;;
28653;SDS011;24320;56.980;24.336;2023-06-19T01:23:06;19.77;;;14.45;;
28653;SDS011;24320;56.980;24.336;2023-06-19T01:25:36;23.17;;;14.52;;
28653;SDS011;24320;56.980;24.336;2023-06-19T01:28:04;22.23;;;14.65;;
28653;SDS011;24320;56.980;24.336;2023-06-19T01:30:36;22.10;;;14.65;;
28653;SDS011;24320;56.980;24.336;2023-06-19T01:33:20;22.23;;;14.43;;
28653;SDS011;24320;56.980;24.336;2023-06-19T01:35:52;22.75;;;14.60;;
28653;SDS011;24320;56.980;24.336;2023-06-19T01:38:22;23.73;;;15.35;;
28653;SDS011;24320;56.980;24.336;2023-06-19T01:40:52;26.02;;;15.90;;
28653;SDS011;24320;56.980;24.336;2023-06-19T01:43:21;23.17;;;15.30;;
28653;SDS011;24320;56.980;24.336;2023-06-19T01:45:49;23.15;;;15.25;;
28653;SDS011;24320;56.980;24.336;2023-06-19T01:48:16;23.30;;;15.18;;
28653;SDS011;24320;56.980;24.336;2023-06-19T01:50:47;24.23;;;15.88;;
28653;SDS011;24320;56.980;24.336;2023-06-19T01:53:15;23.95;;;16.10;;
28653;SDS011;24320;56.980;24.336;2023-06-19T01:55:43;24.77;;;15.88;;
28653;SDS011;24320;56.980;24.336;2023-06-19T01:58:10;28.00;;;15.98;;
28653;SDS011;24320;56.980;24.336;2023-06-19T02:00:37;35.83;;;16.60;;
28653;SDS011;24320;56.980;24.336;2023-06-19T02:03:04;24.38;;;16.08;;
28653;SDS011;24320;56.980;24.336;2023-06-19T02:05:32;23.13;;;15.15;;
28653;SDS011;24320;56.980;24.336;2023-06-19T02:08:00;20.67;;;15.20;;
28653;SDS011;24320;56.980;24.336;2023-06-19T02:10:27;27.75;;;14.88;;
28653;SDS011;24320;56.980;24.336;2023-06-19T02:12:54;22.05;;;14.90;;
28653;SDS011;24320;56.980;24.336;2023-06-19T02:15:21;23.05;;;15.52;;
28653;SDS011;24320;56.980;24.336;2023-06-19T02:17:48;23.98;;;15.68;;
28653;SDS011;24320;56.980;24.336;2023-06-19T02:20:22;21.70;;;14.27;;
28653;SDS011;24320;56.980;24.336;2023-06-19T02:22:51;20.60;;;14.93;;
28653;SDS011;24320;56.980;24.336;2023-06-19T02:25:18;22.70;;;15.15;;
28653;SDS011;24320;56.980;24.336;2023-06-19T02:27:46;22.75;;;14.82;;
28653;SDS011;24320;56.980;24.336;2023-06-19T02:30:14;21.02;;;14.95;;
28653;SDS011;24320;56.980;24.336;2023-06-19T02:32:41;21.08;;;14.38;;
28653;SDS011;24320;56.980;24.336;2023-06-19T02:35:09;24.08;;;14.48;;
28653;SDS011;24320;56.980;24.336;2023-06-19T02:37:38;24.23;;;15.20;;
28653;SDS011;24320;56.980;24.336;2023-06-19T02:40:05;21.80;;;14.05;;
28653;SDS011;24320;56.980;24.336;2023-06-19T02:42:33;22.83;;;14.73;;
28653;SDS011;24320;56.980;24.336;2023-06-19T02:45:00;23.73;;;15.05;;
28653;SDS011;24320;56.980;24.336;2023-06-19T02:47:30;22.40;;;15.27;;
28653;SDS011;24320;56.980;24.336;2023-06-19T02:50:01;25.50;;;15.23;;
28653;SDS011;24320;56.980;24.336;2023-06-19T02:52:30;23.88;;;14.70;;
28653;SDS011;24320;56.980;24.336;2023-06-19T02:54:57;22.48;;;14.27;;
28653;SDS011;24320;56.980;24.336;2023-06-19T02:57:24;20.50;;;15.02;;
28653;SDS011;24320;56.980;24.336;2023-06-19T02:59:51;21.98;;;14.85;;
28653;SDS011;24320;56.980;24.336;2023-06-19T03:02:19;21.85;;;15.00;;
28653;SDS011;24320;56.980;24.336;2023-06-19T03:04:46;21.15;;;14.77;;
28653;SDS011;24320;56.980;24.336;2023-06-19T03:07:13;24.33;;;15.10;;
28653;SDS011;24320;56.980;24.336;2023-06-19T03:09:40;23.92;;;14.65;;
28653;SDS011;24320;56.980;24.336;2023-06-19T03:12:08;19.83;;;14.40;;
28653;SDS011;24320;56.980;24.336;2023-06-19T03:14:35;19.83;;;13.55;;
28653;SDS011;24320;56.980;24.336;2023-06-19T03:17:02;20.45;;;14.40;;
28653;SDS011;24320;56.980;24.336;2023-06-19T03:19:30;21.50;;;13.75;;
28653;SDS011;24320;56.980;24.336;2023-06-19T03:21:57;21.38;;;14.35;;
28653;SDS011;24320;56.980;24.336;2023-06-19T03:24:24;20.13;;;13.88;;
28653;SDS011;24320;56.980;24.336;2023-06-19T03:26:52;21.92;;;13.93;;
28653;SDS011;24320;56.980;24.336;2023-06-19T03:29:20;20.27;;;13.30;;
28653;SDS011;24320;56.980;24.336;2023-06-19T03:31:47;20.00;;;13.13;;
28653;SDS011;24320;56.980;24.336;2023-06-19T03:34:14;20.20;;;12.60;;
28653;SDS011;24320;56.980;24.336;2023-06-19T03:36:41;21.27;;;13.70;;
28653;SDS011;24320;56.980;24.336;2023-06-19T03:39:08;22.45;;;14.45;;
28653;SDS011;24320;56.980;24.336;2023-06-19T03:41:35;21.75;;;15.20;;
28653;SDS011;24320;56.980;24.336;2023-06-19T03:44:02;19.60;;;13.80;;
28653;SDS011;24320;56.980;24.336;2023-06-19T03:46:29;21.15;;;13.65;;
28653;SDS011;24320;56.980;24.336;2023-06-19T03:48:56;21.75;;;14.02;;
28653;SDS011;24320;56.980;24.336;2023-06-19T03:51:23;26.10;;;15.07;;
28653;SDS011;24320;56.980;24.336;2023-06-19T03:53:50;20.98;;;14.20;;
28653;SDS011;24320;56.980;24.336;2023-06-19T03:56:17;20.23;;;13.82;;
28653;SDS011;24320;56.980;24.336;2023-06-19T03:58:44;18.13;;;13.23;;
28653;SDS011;24320;56.980;24.336;2023-06-19T04:01:11;23.02;;;13.75;;
28653;SDS011;24320;56.980;24.336;2023-06-19T04:03:38;19.15;;;13.20;;
28653;SDS011;24320;56.980;24.336;2023-06-19T04:06:07;21.95;;;12.82;;
28653;SDS011;24320;56.980;24.336;2023-06-19T04:08:34;20.15;;;13.25;;
28653;SDS011;24320;56.980;24.336;2023-06-19T04:11:01;17.63;;;12.48;;
28653;SDS011;24320;56.980;24.336;2023-06-19T04:13:28;21.52;;;12.43;;
28653;SDS011;24320;56.980;24.336;2023-06-19T04:15:55;18.00;;;12.27;;
28653;SDS011;24320;56.980;24.336;2023-06-19T04:18:23;18.83;;;13.18;;
28653;SDS011;24320;56.980;24.336;2023-06-19T04:20:50;19.45;;;12.35;;
28653;SDS011;24320;56.980;24.336;2023-06-19T04:23:17;17.65;;;12.43;;
28653;SDS011;24320;56.980;24.336;2023-06-19T04:25:44;19.05;;;12.18;;
28653;SDS011;24320;56.980;24.336;2023-06-19T04:28:11;17.20;;;11.85;;
28653;SDS011;24320;56.980;24.336;2023-06-19T04:30:38;20.13;;;12.05;;
28653;SDS011;24320;56.980;24.336;2023-06-19T04:33:07;17.35;;;11.82;;
28653;SDS011;24320;56.980;24.336;2023-06-19T04:35:35;14.13;;;10.75;;
28653;SDS011;24320;56.980;24.336;2023-06-19T04:38:07;17.27;;;10.15;;
28653;SDS011;24320;56.980;24.336;2023-06-19T04:40:34;16.65;;;10.18;;
28653;SDS011;24320;56.980;24.336;2023-06-19T04:43:01;13.68;;;9.95;;
28653;SDS011;24320;56.980;24.336;2023-06-19T04:45:29;13.05;;;10.05;;
28653;SDS011;24320;56.980;24.336;2023-06-19T04:47:56;12.50;;;9.23;;
28653;SDS011;24320;56.980;24.336;2023-06-19T04:50:23;15.40;;;10.13;;
28653;SDS011;24320;56.980;24.336;2023-06-19T04:52:51;17.20;;;9.90;;
28653;SDS011;24320;56.980;24.336;2023-06-19T04:55:18;17.00;;;9.85;;
28653;SDS011;24320;56.980;24.336;2023-06-19T04:57:45;15.57;;;10.07;;
28653;SDS011;24320;56.980;24.336;2023-06-19T05:00:13;15.48;;;9.60;;
28653;SDS011;24320;56.980;24.336;2023-06-19T05:02:41;12.52;;;9.35;;
28653;SDS011;24320;56.980;24.336;2023-06-19T05:05:10;15.45;;;10.15;;
28653;SDS011;24320;56.980;24.336;2023-06-19T05:07:37;13.45;;;9.18;;
28653;SDS011;24320;56.980;24.336;2023-06-19T05:10:05;13.23;;;8.70;;
28653;SDS011;24320;56.980;24.336;2023-06-19T05:12:34;12.98;;;9.18;;
28653;SDS011;24320;56.980;24.336;2023-06-19T05:15:01;12.55;;;8.82;;
28653;SDS011;24320;56.980;24.336;2023-06-19T05:17:29;13.20;;;8.38;;
28653;SDS011;24320;56.980;24.336;2023-06-19T05:19:56;11.52;;;8.07;;
28653;SDS011;24320;56.980;24.336;2023-06-19T05:22:23;14.35;;;8.95;;
28653;SDS011;24320;56.980;24.336;2023-06-19T05:24:50;12.38;;;8.32;;
28653;SDS011;24320;56.980;24.336;2023-06-19T05:27:17;13.20;;;8.43;;
28653;SDS011;24320;56.980;24.336;2023-06-19T05:29:44;14.50;;;8.50;;
28653;SDS011;24320;56.980;24.336;2023-06-19T05:32:12;11.48;;;8.68;;
28653;SDS011;24320;56.980;24.336;2023-06-19T05:34:39;12.68;;;8.80;;
28653;SDS011;24320;56.980;24.336;2023-06-19T05:37:06;12.65;;;8.70;;
28653;SDS011;24320;56.980;24.336;2023-06-19T05:39:33;12.25;;;8.10;;
28653;SDS011;24320;56.980;24.336;2023-06-19T05:42:00;15.63;;;8.48;;
28653;SDS011;24320;56.980;24.336;2023-06-19T05:44:28;14.07;;;8.48;;
28653;SDS011;24320;56.980;24.336;2023-06-19T05:46:55;11.07;;;7.85;;
28653;SDS011;24320;56.980;24.336;2023-06-19T05:49:22;14.02;;;8.73;;
28653;SDS011;24320;56.980;24.336;2023-06-19T05:51:49;12.57;;;8.32;;
28653;SDS011;24320;56.980;24.336;2023-06-19T05:54:16;11.00;;;8.10;;
28653;SDS011;24320;56.980;24.336;2023-06-19T05:56:44;10.20;;;7.75;;
28653;SDS011;24320;56.980;24.336;2023-06-19T05:59:11;13.00;;;8.63;;
28653;SDS011;24320;56.980;24.336;2023-06-19T06:01:41;14.40;;;8.90;;
28653;SDS011;24320;56.980;24.336;2023-06-19T06:04:08;10.68;;;8.00;;
28653;SDS011;24320;56.980;24.336;2023-06-19T06:06:35;11.45;;;8.32;;
28653;SDS011;24320;56.980;24.336;2023-06-19T06:09:02;11.68;;;7.93;;
28653;SDS011;24320;56.980;24.336;2023-06-19T06:11:30;12.85;;;8.48;;
28653;SDS011;24320;56.980;24.336;2023-06-19T06:13:57;11.68;;;8.05;;
28653;SDS011;24320;56.980;24.336;2023-06-19T06:16:24;13.65;;;8.45;;
28653;SDS011;24320;56.980;24.336;2023-06-19T06:18:51;11.65;;;8.57;;
28653;SDS011;24320;56.980;24.336;2023-06-19T06:21:18;13.85;;;8.25;;
28653;SDS011;24320;56.980;24.336;2023-06-19T06:23:45;10.88;;;8.60;;
28653;SDS011;24320;56.980;24.336;2023-06-19T06:26:14;11.80;;;7.85;;
28653;SDS011;24320;56.980;24.336;2023-06-19T06:28:41;11.98;;;8.40;;
28653;SDS011;24320;56.980;24.336;2023-06-19T06:31:08;10.45;;;7.75;;
28653;SDS011;24320;56.980;24.336;2023-06-19T06:33:35;12.02;;;8.52;;
28653;SDS011;24320;56.980;24.336;2023-06-19T06:36:02;12.45;;;8.15;;
28653;SDS011;24320;56.980;24.336;2023-06-19T06:38:31;11.40;;;7.85;;
28653;SDS011;24320;56.980;24.336;2023-06-19T06:40:58;9.07;;;7.57;;
28653;SDS011;24320;56.980;24.336;2023-06-19T06:43:25;11.68;;;8.35;;
28653;SDS011;24320;56.980;24.336;2023-06-19T06:45:53;10.20;;;7.65;;
28653;SDS011;24320;56.980;24.336;2023-06-19T06:48:20;11.32;;;7.85;;
28653;SDS011;24320;56.980;24.336;2023-06-19T06:50:47;12.00;;;7.95;;
28653;SDS011;24320;56.980;24.336;2023-06-19T06:53:14;13.10;;;8.05;;
28653;SDS011;24320;56.980;24.336;2023-06-19T06:55:41;12.32;;;7.45;;
28653;SDS011;24320;56.980;24.336;2023-06-19T06:58:08;11.27;;;7.85;;
28653;SDS011;24320;56.980;24.336;2023-06-19T07:00:35;9.85;;;7.50;;
28653;SDS011;24320;56.980;24.336;2023-06-19T07:03:03;12.35;;;8.68;;
28653;SDS011;24320;56.980;24.336;2023-06-19T07:05:30;10.85;;;7.97;;
28653;SDS011;24320;56.980;24.336;2023-06-19T07:07:57;13.77;;;7.78;;
28653;SDS011;24320;56.980;24.336;2023-06-19T07:10:24;12.13;;;7.43;;
28653;SDS011;24320;56.980;24.336;2023-06-19T07:12:52;15.10;;;7.93;;
28653;SDS011;24320;56.980;24.336;2023-06-19T07:15:19;15.77;;;8.07;;
28653;SDS011;24320;56.980;24.336;2023-06-19T07:17:46;12.85;;;7.68;;
28653;SDS011;24320;56.980;24.336;2023-06-19T07:20:14;10.43;;;7.38;;
28653;SDS011;24320;56.980;24.336;2023-06-19T07:22:41;11.23;;;7.50;;
28653;SDS011;24320;56.980;24.336;2023-06-19T07:25:10;14.02;;;8.07;;
28653;SDS011;24320;56.980;24.336;2023-06-19T07:27:41;11.35;;;8.10;;
28653;SDS011;24320;56.980;24.336;2023-06-19T07:30:09;14.25;;;8.38;;
28653;SDS011;24320;56.980;24.336;2023-06-19T07:32:45;13.98;;;7.45;;
28653;SDS011;24320;56.980;24.336;2023-06-19T07:35:12;16.77;;;8.18;;
28653;SDS011;24320;56.980;24.336;2023-06-19T07:37:40;12.10;;;7.88;;
28653;SDS011;24320;56.980;24.336;2023-06-19T07:40:07;11.65;;;8.40;;
28653;SDS011;24320;56.980;24.336;2023-06-19T07:42:34;12.07;;;8.13;;
28653;SDS011;24320;56.980;24.336;2023-06-19T07:45:02;11.27;;;8.05;;
28653;SDS011;24320;56.980;24.336;2023-06-19T07:47:30;10.93;;;7.97;;
28653;SDS011;24320;56.980;24.336;2023-06-19T07:49:57;11.13;;;7.82;;
28653;SDS011;24320;56.980;24.336;2023-06-19T07:52:24;13.15;;;8.27;;
28653;SDS011;24320;56.980;24.336;2023-06-19T07:54:52;16.20;;;7.72;;
28653;SDS011;24320;56.980;24.336;2023-06-19T07:57:20;18.00;;;8.43;;
28653;SDS011;24320;56.980;24.336;2023-06-19T07:59:49;15.93;;;7.82;;
28653;SDS011;24320;56.980;24.336;2023-06-19T08:02:17;13.13;;;7.45;;
28653;SDS011;24320;56.980;24.336;2023-06-19T08:04:47;13.57;;;7.57;;
28653;SDS011;24320;56.980;24.336;2023-06-19T08:07:14;12.10;;;8.07;;
28653;SDS011;24320;56.980;24.336;2023-06-19T08:09:41;10.80;;;8.38;;
28653;SDS011;24320;56.980;24.336;2023-06-19T08:12:08;10.73;;;8.15;;
28653;SDS011;24320;56.980;24.336;2023-06-19T08:14:36;10.90;;;7.70;;
28653;SDS011;24320;56.980;24.336;2023-06-19T08:17:04;11.43;;;8.07;;
28653;SDS011;24320;56.980;24.336;2023-06-19T08:19:32;11.35;;;8.18;;
28653;SDS011;24320;56.980;24.336;2023-06-19T08:21:59;13.80;;;8.35;;
28653;SDS011;24320;56.980;24.336;2023-06-19T08:24:26;10.55;;;7.70;;
28653;SDS011;24320;56.980;24.336;2023-06-19T08:26:53;13.73;;;7.43;;
28653;SDS011;24320;56.980;24.336;2023-06-19T08:29:20;13.20;;;8.32;;
28653;SDS011;24320;56.980;24.336;2023-06-19T08:31:49;12.80;;;8.05;;
28653;SDS011;24320;56.980;24.336;2023-06-19T08:34:16;13.13;;;7.38;;
28653;SDS011;24320;56.980;24.336;2023-06-19T08:36:43;10.43;;;7.70;;
28653;SDS011;24320;56.980;24.336;2023-06-19T08:39:10;13.90;;;7.47;;
28653;SDS011;24320;56.980;24.336;2023-06-19T08:41:37;13.95;;;7.95;;
28653;SDS011;24320;56.980;24.336;2023-06-19T08:44:04;12.45;;;7.38;;
28653;SDS011;24320;56.980;24.336;2023-06-19T08:46:32;12.63;;;7.93;;
28653;SDS011;24320;56.980;24.336;2023-06-19T08:49:01;10.02;;;7.70;;
28653;SDS011;24320;56.980;24.336;2023-06-19T08:51:28;10.57;;;8.07;;
28653;SDS011;24320;56.980;24.336;2023-06-19T08:56:33;10.20;;;7.65;;
28653;SDS011;24320;56.980;24.336;2023-06-19T08:59:08;11.02;;;7.50;;
28653;SDS011;24320;56.980;24.336;2023-06-19T09:01:40;10.88;;;7.57;;
28653;SDS011;24320;56.980;24.336;2023-06-19T09:04:22;11.25;;;7.50;;
28653;SDS011;24320;56.980;24.336;2023-06-19T09:06:58;18.83;;;7.88;;
28653;SDS011;24320;56.980;24.336;2023-06-19T09:09:30;11.90;;;7.70;;
28653;SDS011;24320;56.980;24.336;2023-06-19T09:12:00;12.55;;;8.07;;
28653;SDS011;24320;56.980;24.336;2023-06-19T09:17:04;10.48;;;7.75;;
28653;SDS011;24320;56.980;24.336;2023-06-19T09:19:37;12.45;;;8.07;;
28653;SDS011;24320;56.980;24.336;2023-06-19T09:22:04;12.75;;;7.65;;
28653;SDS011;24320;56.980;24.336;2023-06-19T09:24:40;10.63;;;7.38;;
28653;SDS011;24320;56.980;24.336;2023-06-19T09:27:15;12.80;;;7.28;;
28653;SDS011;24320;56.980;24.336;2023-06-19T09:29:47;9.88;;;7.18;;
28653;SDS011;24320;56.980;24.336;2023-06-19T09:34:49;13.00;;;7.43;;
28653;SDS011;24320;56.980;24.336;2023-06-19T09:37:24;11.93;;;7.10;;
28653;SDS011;24320;56.980;24.336;2023-06-19T09:39:53;16.52;;;7.40;;
28653;SDS011;24320;56.980;24.336;2023-06-19T09:42:31;9.93;;;7.07;;
28653;SDS011;24320;56.980;24.336;2023-06-19T09:45:03;11.05;;;7.45;;
28653;SDS011;24320;56.980;24.336;2023-06-19T09:47:33;11.73;;;7.28;;
28653;SDS011;24320;56.980;24.336;2023-06-19T09:50:07;16.95;;;8.07;;
28653;SDS011;24320;56.980;24.336;2023-06-19T09:52:34;18.02;;;7.55;;
28653;SDS011;24320;56.980;24.336;2023-06-19T09:55:02;13.45;;;7.72;;
28653;SDS011;24320;56.980;24.336;2023-06-19T09:57:31;14.70;;;7.28;;
28653;SDS011;24320;56.980;24.336;2023-06-19T10:00:00;15.40;;;7.55;;
28653;SDS011;24320;56.980;24.336;2023-06-19T10:02:43;12.70;;;8.05;;
28653;SDS011;24320;56.980;24.336;2023-06-19T10:05:12;14.85;;;7.82;;
28653;SDS011;24320;56.980;24.336;2023-06-19T10:07:42;11.50;;;7.22;;
28653;SDS011;24320;56.980;24.336;2023-06-19T10:10:23;13.63;;;7.28;;
28653;SDS011;24320;56.980;24.336;2023-06-19T10:13:15;12.80;;;7.28;;
28653;SDS011;24320;56.980;24.336;2023-06-19T10:15:42;11.40;;;6.82;;
28653;SDS011;24320;56.980;24.336;2023-06-19T10:18:14;14.90;;;7.45;;
28653;SDS011;24320;56.980;24.336;2023-06-19T10:20:43;12.70;;;7.78;;
28653;SDS011;24320;56.980;24.336;2023-06-19T10:25:47;16.42;;;6.90;;
28653;SDS011;24320;56.980;24.336;2023-06-19T10:28:16;19.58;;;8.13;;
28653;SDS011;24320;56.980;24.336;2023-06-19T10:30:44;11.32;;;7.20;;
28653;SDS011;24320;56.980;24.336;2023-06-19T10:33:17;11.75;;;6.70;;
28653;SDS011;24320;56.980;24.336;2023-06-19T10:35:44;8.50;;;6.63;;
28653;SDS011;24320;56.980;24.336;2023-06-19T10:38:14;12.88;;;6.63;;
28653;SDS011;24320;56.980;24.336;2023-06-19T10:40:42;11.48;;;6.90;;
28653;SDS011;24320;56.980;24.336;2023-06-19T10:43:11;11.00;;;7.10;;
28653;SDS011;24320;56.980;24.336;2023-06-19T10:45:39;11.25;;;6.85;;
28653;SDS011;24320;56.980;24.336;2023-06-19T10:48:06;12.02;;;7.18;;
28653;SDS011;24320;56.980;24.336;2023-06-19T10:50:34;11.10;;;7.22;;
28653;SDS011;24320;56.980;24.336;2023-06-19T10:53:04;12.35;;;7.15;;
28653;SDS011;24320;56.980;24.336;2023-06-19T10:55:31;10.95;;;6.60;;
28653;SDS011;24320;56.980;24.336;2023-06-19T10:58:01;12.80;;;7.07;;
28653;SDS011;24320;56.980;24.336;2023-06-19T11:00:30;13.30;;;7.43;;
28653;SDS011;24320;56.980;24.336;2023-06-19T11:05:26;11.68;;;7.35;;
28653;SDS011;24320;56.980;24.336;2023-06-19T11:07:55;12.88;;;7.53;;
28653;SDS011;24320;56.980;24.336;2023-06-19T11:10:26;11.75;;;7.43;;
28653;SDS011;24320;56.980;24.336;2023-06-19T11:12:55;10.68;;;6.80;;
28653;SDS011;24320;56.980;24.336;2023-06-19T11:15:30;13.05;;;7.10;;
28653;SDS011;24320;56.980;24.336;2023-06-19T11:17:59;15.85;;;7.80;;
28653;SDS011;24320;56.980;24.336;2023-06-19T11:20:27;34.95;;;7.88;;
28653;SDS011;24320;56.980;24.336;2023-06-19T11:22:58;18.63;;;7.60;;
28653;SDS011;24320;56.980;24.336;2023-06-19T11:25:36;16.73;;;7.43;;
28653;SDS011;24320;56.980;24.336;2023-06-19T11:28:05;64.30;;;10.73;;
28653;SDS011;24320;56.980;24.336;2023-06-19T11:30:41;11.52;;;6.90;;
28653;SDS011;24320;56.980;24.336;2023-06-19T11:33:16;8.85;;;6.60;;
28653;SDS011;24320;56.980;24.336;2023-06-19T11:35:49;21.85;;;7.47;;
28653;SDS011;24320;56.980;24.336;2023-06-19T11:38:19;10.65;;;7.10;;
28653;SDS011;24320;56.980;24.336;2023-06-19T11:40:47;15.52;;;6.93;;
28653;SDS011;24320;56.980;24.336;2023-06-19T11:43:28;10.55;;;7.10;;
28653;SDS011;24320;56.980;24.336;2023-06-19T11:46:05;13.23;;;7.75;;
28653;SDS011;24320;56.980;24.336;2023-06-19T11:48:37;9.77;;;7.10;;
28653;SDS011;24320;56.980;24.336;2023-06-19T11:53:31;12.70;;;6.88;;
28653;SDS011;24320;56.980;24.336;2023-06-19T11:55:58;10.65;;;6.85;;
28653;SDS011;24320;56.980;24.336;2023-06-19T11:58:26;10.32;;;6.70;;
28653;SDS011;24320;56.980;24.336;2023-06-19T12:00:53;22.25;;;7.85;;
28653;SDS011;24320;56.980;24.336;2023-06-19T12:03:20;20.80;;;7.50;;
28653;SDS011;24320;56.980;24.336;2023-06-19T12:05:47;22.45;;;7.97;;
28653;SDS011;24320;56.980;24.336;2023-06-19T12:08:14;13.82;;;7.28;;
28653;SDS011;24320;56.980;24.336;2023-06-19T12:10:42;14.00;;;7.05;;
28653;SDS011;24320;56.980;24.336;2023-06-19T12:13:09;11.73;;;7.55;;
28653;SDS011;24320;56.980;24.336;2023-06-19T12:15:36;9.82;;;7.53;;
28653;SDS011;24320;56.980;24.336;2023-06-19T12:18:03;10.95;;;6.72;;
28653;SDS011;24320;56.980;24.336;2023-06-19T12:20:33;11.40;;;7.40;;
28653;SDS011;24320;56.980;24.336;2023-06-19T12:23:00;8.05;;;6.78;;
28653;SDS011;24320;56.980;24.336;2023-06-19T12:25:27;10.10;;;7.30;;
28653;SDS011;24320;56.980;24.336;2023-06-19T12:27:54;10.15;;;7.25;;
28653;SDS011;24320;56.980;24.336;2023-06-19T12:30:22;10.80;;;7.38;;
28653;SDS011;24320;56.980;24.336;2023-06-19T12:32:50;8.75;;;6.85;;
28653;SDS011;24320;56.980;24.336;2023-06-19T12:35:17;11.02;;;7.15;;
28653;SDS011;24320;56.980;24.336;2023-06-19T12:37:44;10.30;;;7.00;;
28653;SDS011;24320;56.980;24.336;2023-06-19T12:40:12;12.02;;;7.82;;
28653;SDS011;24320;56.980;24.336;2023-06-19T12:42:39;10.88;;;7.03;;
28653;SDS011;24320;56.980;24.336;2023-06-19T12:45:06;16.58;;;7.90;;
28653;SDS011;24320;56.980;24.336;2023-06-19T12:47:34;12.07;;;7.43;;
28653;SDS011;24320;56.980;24.336;2023-06-19T12:50:01;11.75;;;7.32;;
28653;SDS011;24320;56.980;24.336;2023-06-19T12:52:28;10.70;;;7.05;;
28653;SDS011;24320;56.980;24.336;2023-06-19T12:54:57;11.35;;;7.25;;
28653;SDS011;24320;56.980;24.336;2023-06-19T12:57:26;10.70;;;6.82;;
28653;SDS011;24320;56.980;24.336;2023-06-19T12:59:53;9.50;;;6.63;;
28653;SDS011;24320;56.980;24.336;2023-06-19T13:02:20;12.40;;;6.70;;
28653;SDS011;24320;56.980;24.336;2023-06-19T13:04:47;13.18;;;7.15;;
28653;SDS011;24320;56.980;24.336;2023-06-19T13:07:14;10.27;;;6.60;;
28653;SDS011;24320;56.980;24.336;2023-06-19T13:09:42;13.93;;;7.00;;
28653;SDS011;24320;56.980;24.336;2023-06-19T13:12:09;14.52;;;7.50;;
28653;SDS011;24320;56.980;24.336;2023-06-19T13:14:36;13.38;;;7.30;;
28653;SDS011;24320;56.980;24.336;2023-06-19T13:17:04;10.18;;;7.10;;
28653;SDS011;24320;56.980;24.336;2023-06-19T13:19:31;9.10;;;7.18;;
28653;SDS011;24320;56.980;24.336;2023-06-19T13:21:59;10.10;;;7.20;;
28653;SDS011;24320;56.980;24.336;2023-06-19T13:24:26;11.32;;;7.18;;
28653;SDS011;24320;56.980;24.336;2023-06-19T13:26:54;12.20;;;7.40;;
28653;SDS011;24320;56.980;24.336;2023-06-19T13:29:21;11.48;;;6.93;;
28653;SDS011;24320;56.980;24.336;2023-06-19T13:31:48;10.65;;;6.70;;
28653;SDS011;24320;56.980;24.336;2023-06-19T13:34:15;35.80;;;9.38;;
28653;SDS011;24320;56.980;24.336;2023-06-19T13:36:42;8.73;;;6.93;;
28653;SDS011;24320;56.980;24.336;2023-06-19T13:39:09;10.88;;;6.78;;
28653;SDS011;24320;56.980;24.336;2023-06-19T13:41:37;24.58;;;8.35;;
28653;SDS011;24320;56.980;24.336;2023-06-19T13:44:04;10.13;;;7.32;;
28653;SDS011;24320;56.980;24.336;2023-06-19T13:46:31;14.15;;;7.18;;
28653;SDS011;24320;56.980;24.336;2023-06-19T13:48:58;13.52;;;7.25;;
28653;SDS011;24320;56.980;24.336;2023-06-19T13:51:25;11.30;;;7.15;;
28653;SDS011;24320;56.980;24.336;2023-06-19T13:53:52;11.23;;;7.10;;
28653;SDS011;24320;56.980;24.336;2023-06-19T13:56:20;8.82;;;7.07;;
28653;SDS011;24320;56.980;24.336;2023-06-19T13:58:49;13.57;;;7.40;;
28653;SDS011;24320;56.980;24.336;2023-06-19T14:01:17;10.07;;;7.10;;
28653;SDS011;24320;56.980;24.336;2023-06-19T14:03:44;11.10;;;7.03;;
28653;SDS011;24320;56.980;24.336;2023-06-19T14:06:11;12.27;;;7.10;;
28653;SDS011;24320;56.980;24.336;2023-06-19T14:08:39;11.63;;;7.22;;
28653;SDS011;24320;56.980;24.336;2023-06-19T14:11:06;13.02;;;7.03;;
28653;SDS011;24320;56.980;24.336;2023-06-19T14:13:33;33.88;;;7.80;;
28653;SDS011;24320;56.980;24.336;2023-06-19T14:16:01;12.65;;;7.18;;
28653;SDS011;24320;56.980;24.336;2023-06-19T14:18:28;9.80;;;7.43;;
28653;SDS011;24320;56.980;24.336;2023-06-19T14:20:55;10.93;;;6.90;;
28653;SDS011;24320;56.980;24.336;2023-06-19T14:23:22;13.25;;;7.57;;
28653;SDS011;24320;56.980;24.336;2023-06-19T14:25:49;15.52;;;7.80;;
28653;SDS011;24320;56.980;24.336;2023-06-19T14:28:16;11.27;;;7.20;;
28653;SDS011;24320;56.980;24.336;2023-06-19T14:30:44;10.88;;;7.60;;
28653;SDS011;24320;56.980;24.336;2023-06-19T14:33:11;14.38;;;7.05;;
28653;SDS011;24320;56.980;24.336;2023-06-19T14:38:14;8.27;;;6.72;;
28653;SDS011;24320;56.980;24.336;2023-06-19T14:40:41;14.43;;;7.55;;
28653;SDS011;24320;56.980;24.336;2023-06-19T14:43:10;11.75;;;7.72;;
28653;SDS011;24320;56.980;24.336;2023-06-19T14:45:37;11.10;;;6.97;;